Time;durP1;ratioP1;P1;durP2;ratioP2;P2;SDS_P1;SDS_P2;PMS_P1;PMS_P2;Temp;Humidity;BMP_temperature;BMP_pressure;BME280_temperature;BME280_humidity;BME280_pressure;Samples;Min_cycle;Max_cycle;Signal;HPM_P1;HPM_P2
2023/06/23 00:00:13;;;;;;;1.80;1.13;;;;;;;24.94;52.64;97475.16;5087746;28;20519;-71
2023/06/23 00:02:42;;;;;;;2.77;1.30;;;;;;;24.86;52.69;97477.41;5098877;28;20439;-69
2023/06/23 00:05:08;;;;;;;2.20;1.47;;;;;;;24.76;53.90;97478.81;5098552;28;20427;-69
2023/06/23 00:07:38;;;;;;;1.80;1.40;;;;;;;24.71;53.71;97480.56;5088604;28;20422;-69
2023/06/23 00:10:05;;;;;;;1.67;1.30;;;;;;;24.59;54.32;97489.41;5096498;28;20515;-69
2023/06/23 00:12:34;;;;;;;1.50;1.40;;;;;;;24.51;54.76;97489.78;5088040;28;20535;-69
2023/06/23 00:15:00;;;;;;;1.80;1.30;;;;;;;24.30;55.63;97493.88;5088748;28;20925;-70
2023/06/23 00:17:26;;;;;;;2.50;1.23;;;;;;;24.34;55.80;97503.09;5087812;28;20792;-69
2023/06/23 00:19:51;;;;;;;1.50;1.40;;;;;;;24.16;56.46;97509.38;5088290;28;20512;-70
2023/06/23 00:22:17;;;;;;;3.03;1.63;;;;;;;23.99;57.65;97509.25;5086984;28;20258;-72
2023/06/23 00:24:43;;;;;;;1.90;1.33;;;;;;;24.00;57.37;97506.34;5087877;28;20701;-69
2023/06/23 00:27:08;;;;;;;2.20;1.40;;;;;;;24.13;57.66;97504.50;5087926;28;20277;-69
2023/06/23 00:29:34;;;;;;;1.77;1.67;;;;;;;24.08;57.26;97508.66;5091569;28;21169;-69
2023/06/23 00:31:59;;;;;;;4.30;1.40;;;;;;;24.08;57.32;97515.91;5095259;28;20213;-70
2023/06/23 00:34:25;;;;;;;1.80;1.40;;;;;;;24.05;58.01;97508.31;5094047;28;20177;-69
2023/06/23 00:36:50;;;;;;;4.70;1.60;;;;;;;24.03;57.98;97516.59;5087446;28;20205;-70
2023/06/23 00:39:16;;;;;;;2.60;1.40;;;;;;;24.18;58.37;97515.31;5092318;28;20173;-69
2023/06/23 00:41:41;;;;;;;2.03;1.70;;;;;;;24.11;58.23;97506.56;5086440;28;20240;-69
2023/06/23 00:44:07;;;;;;;1.77;1.60;;;;;;;24.23;58.08;97502.88;5092620;28;20479;-70
2023/06/23 00:46:33;;;;;;;1.97;1.30;;;;;;;24.11;58.94;97506.56;5091333;28;20173;-71
2023/06/23 00:49:00;;;;;;;1.40;1.30;;;;;;;24.16;58.65;97517.41;5075299;28;20952;-70
2023/06/23 00:51:26;;;;;;;2.60;1.83;;;;;;;24.03;59.16;97511.25;5091304;28;20323;-70
2023/06/23 00:53:52;;;;;;;2.00;1.60;;;;;;;24.06;58.84;97516.13;5092286;28;20818;-70
2023/06/23 00:56:21;;;;;;;2.33;1.60;;;;;;;24.12;58.68;97513.56;5073088;28;20435;-70
2023/06/23 00:58:47;;;;;;;3.00;1.37;;;;;;;23.84;59.57;97509.66;5092551;28;20217;-70
2023/06/23 01:01:12;;;;;;;7.73;2.30;;;;;;;23.81;59.88;97520.84;5095049;28;20455;-70
2023/06/23 01:03:38;;;;;;;1.70;1.60;;;;;;;23.76;60.41;97514.31;5074064;28;20186;-70
2023/06/23 01:06:14;;;;;;;1.90;1.67;;;;;;;23.70;60.44;97512.53;5098336;28;20192;-70
2023/06/23 01:08:50;;;;;;;3.67;1.90;;;;;;;23.87;60.17;97527.94;5070769;28;20666;-69
2023/06/23 01:11:22;;;;;;;1.40;1.30;;;;;;;24.01;60.33;97532.06;5078885;28;21103;-70
2023/06/23 01:13:52;;;;;;;1.83;1.73;;;;;;;23.97;60.70;97535.44;5084610;28;20422;-69
2023/06/23 01:16:30;;;;;;;2.57;1.70;;;;;;;24.10;60.86;97537.06;5089869;28;21015;-69
2023/06/23 01:19:09;;;;;;;2.03;1.70;;;;;;;24.17;60.71;97540.47;5094449;28;20403;-69
2023/06/23 01:21:50;;;;;;;3.67;1.80;;;;;;;24.13;60.46;97558.81;5073927;28;20439;-70
2023/06/23 01:24:37;;;;;;;2.37;2.07;;;;;;;24.08;59.57;97558.72;5094288;28;20422;-70
2023/06/23 01:27:11;;;;;;;1.97;1.87;;;;;;;24.09;58.94;97555.00;5091284;28;20419;-70
2023/06/23 01:29:40;;;;;;;1.97;1.87;;;;;;;24.01;59.19;97566.03;5072575;28;20498;-71
2023/06/23 01:32:10;;;;;;;2.10;1.90;;;;;;;23.93;59.64;97564.50;5092680;28;20447;-70
2023/06/23 01:34:39;;;;;;;3.77;2.30;;;;;;;23.71;59.33;97556.19;5073948;28;20420;-70
2023/06/23 01:37:07;;;;;;;2.30;2.10;;;;;;;23.64;60.09;97566.97;5098618;28;20481;-69
2023/06/23 01:39:35;;;;;;;2.60;2.40;;;;;;;23.57;59.69;97566.25;5075702;28;20451;-70
2023/06/23 01:42:05;;;;;;;3.97;3.03;;;;;;;23.47;59.51;97572.97;5070174;28;20456;-70
2023/06/23 01:44:31;;;;;;;3.30;3.00;;;;;;;23.37;59.65;97571.88;5072820;28;20511;-70
2023/06/23 01:46:59;;;;;;;3.70;3.40;;;;;;;23.34;59.50;97575.81;5072726;28;20431;-71
2023/06/23 01:49:26;;;;;;;3.47;3.17;;;;;;;23.37;59.49;97567.34;5073503;28;20554;-71
2023/06/23 01:51:53;;;;;;;4.60;3.40;;;;;;;23.39;59.09;97577.78;5092709;28;20493;-71
2023/06/23 01:54:20;;;;;;;3.50;3.20;;;;;;;23.39;59.20;97580.47;5071526;28;20420;-71
2023/06/23 01:56:46;;;;;;;4.23;3.83;;;;;;;23.39;59.14;97585.81;5072220;28;20572;-70
2023/06/23 01:59:13;;;;;;;4.00;3.50;;;;;;;23.36;58.97;97586.28;5072789;28;20423;-70
2023/06/23 02:01:40;;;;;;;3.50;3.20;;;;;;;23.30;58.84;97594.16;5076807;28;20447;-71
2023/06/23 02:04:06;;;;;;;4.17;3.20;;;;;;;23.29;58.75;97591.72;5071403;28;20435;-71
2023/06/23 02:06:34;;;;;;;3.50;3.20;;;;;;;23.25;58.83;97598.56;5057953;28;20428;-71
2023/06/23 02:09:02;;;;;;;3.60;3.30;;;;;;;23.15;58.60;97597.19;5093946;28;20534;-70
2023/06/23 02:11:27;;;;;;;4.70;3.37;;;;;;;23.13;58.69;97601.94;5076746;28;20451;-70
2023/06/23 02:13:55;;;;;;;3.40;3.10;;;;;;;23.06;58.82;97614.56;5090954;28;20428;-70
2023/06/23 02:16:21;;;;;;;3.10;2.80;;;;;;;22.97;59.37;97626.59;5079756;28;20721;-70
2023/06/23 02:18:53;;;;;;;2.80;2.53;;;;;;;22.98;59.26;97622.88;5083548;28;20430;-68
2023/06/23 02:21:21;;;;;;;2.70;2.50;;;;;;;22.88;59.59;97628.72;5072482;28;20424;-70
2023/06/23 02:23:46;;;;;;;2.20;2.10;;;;;;;22.88;59.69;97631.41;5078491;28;20826;-70
2023/06/23 02:26:12;;;;;;;2.57;2.37;;;;;;;22.92;58.91;97623.78;5089106;28;20452;-71
2023/06/23 02:28:38;;;;;;;2.50;2.30;;;;;;;22.94;59.03;97624.34;5088763;28;20229;-71
2023/06/23 02:31:04;;;;;;;2.70;2.50;;;;;;;22.97;58.95;97627.41;5093030;28;20201;-70
2023/06/23 02:33:29;;;;;;;2.50;2.30;;;;;;;23.00;58.72;97621.63;5075932;28;20426;-69
2023/06/23 02:35:57;;;;;;;3.20;2.90;;;;;;;23.05;59.05;97628.16;5065482;28;20494;-70
2023/06/23 02:38:25;;;;;;;3.10;2.90;;;;;;;23.09;58.99;97638.19;5057213;28;20177;-70
2023/06/23 02:40:52;;;;;;;3.27;2.97;;;;;;;23.13;58.19;97628.69;5064339;28;20498;-71
2023/06/23 02:43:21;;;;;;;3.40;3.10;;;;;;;22.94;58.80;97632.38;5071598;28;20485;-70
2023/06/23 02:45:49;;;;;;;3.20;2.90;;;;;;;23.00;59.14;97631.50;5096925;28;20955;-70
2023/06/23 02:48:21;;;;;;;2.87;2.67;;;;;;;23.03;58.76;97639.06;5073257;28;20450;-71
2023/06/23 02:50:48;;;;;;;3.60;3.33;;;;;;;23.04;58.32;97630.03;5088173;28;20917;-72
2023/06/23 02:53:21;;;;;;;4.17;3.87;;;;;;;23.02;58.12;97626.75;5072076;28;20448;-69
2023/06/23 02:55:47;;;;;;;4.37;4.00;;;;;;;23.01;57.73;97636.59;5070868;28;21167;-71
2023/06/23 02:58:14;;;;;;;4.27;3.87;;;;;;;22.98;57.82;97636.25;5071895;28;20416;-71
2023/06/23 03:00:40;;;;;;;4.60;4.20;;;;;;;22.95;57.73;97644.69;5076436;28;20445;-70
2023/06/23 03:03:08;;;;;;;4.37;4.00;;;;;;;22.86;57.67;97644.19;5075248;28;20799;-71
2023/06/23 03:05:33;;;;;;;4.87;4.47;;;;;;;22.90;57.47;97647.22;5097592;28;20276;-72
2023/06/23 03:08:00;;;;;;;5.17;4.77;;;;;;;22.85;57.48;97651.38;5054989;28;20593;-70
2023/06/23 03:10:27;;;;;;;6.00;5.07;;;;;;;22.85;57.64;97656.72;5095241;28;20192;-71
2023/06/23 03:12:52;;;;;;;5.07;4.60;;;;;;;22.82;57.69;97659.81;5089469;28;20931;-70
2023/06/23 03:15:18;;;;;;;6.27;5.73;;;;;;;22.80;57.80;97659.25;5071013;28;20419;-71
2023/06/23 03:17:44;;;;;;;5.83;5.23;;;;;;;22.78;57.71;97655.16;5079286;28;20614;-69
2023/06/23 03:20:24;;;;;;;5.90;5.40;;;;;;;22.76;57.40;97657.22;5069524;28;20212;-69
2023/06/23 03:22:55;;;;;;;6.13;5.27;;;;;;;22.81;57.30;97666.19;5083193;28;20533;-71
2023/06/23 03:25:28;;;;;;;6.10;5.50;;;;;;;22.85;57.32;97675.41;5087388;28;20415;-70
2023/06/23 03:27:56;;;;;;;6.37;5.77;;;;;;;22.79;57.25;97664.78;5090865;28;20505;-70
2023/06/23 03:30:48;;;;;;;6.70;6.00;;;;;;;22.66;57.13;97679.09;5061263;28;20444;-69
2023/06/23 03:33:27;;;;;;;6.80;5.63;;;;;;;22.57;57.24;97677.72;5087781;28;20451;-70
2023/06/23 03:35:55;;;;;;;7.93;6.10;;;;;;;22.61;57.45;97676.25;5087415;28;20541;-70
2023/06/23 03:38:22;;;;;;;8.33;6.20;;;;;;;22.45;57.67;97689.09;5099496;28;20428;-69
2023/06/23 03:41:04;;;;;;;6.80;6.13;;;;;;;22.54;57.43;97690.50;5068541;28;20504;-70
2023/06/23 03:43:36;;;;;;;7.00;6.10;;;;;;;22.59;57.35;97694.34;5074224;28;20419;-71
2023/06/23 03:46:05;;;;;;;9.37;6.20;;;;;;;22.61;57.04;97697.63;5075873;28;20422;-70
2023/06/23 03:48:31;;;;;;;7.70;6.70;;;;;;;22.36;57.05;97707.25;5072604;28;20878;-70
2023/06/23 03:50:58;;;;;;;7.10;6.40;;;;;;;22.42;57.05;97700.25;5099988;28;20473;-70
2023/06/23 03:53:25;;;;;;;7.00;6.33;;;;;;;22.38;57.08;97702.47;5089672;28;20501;-71
2023/06/23 03:55:51;;;;;;;8.40;6.20;;;;;;;22.47;57.18;97703.06;5097434;28;20419;-70
2023/06/23 03:58:17;;;;;;;7.73;6.90;;;;;;;22.50;56.86;97709.81;5084326;28;20505;-70
2023/06/23 04:00:43;;;;;;;10.00;7.70;;;;;;;22.55;56.87;97716.16;5071409;28;20181;-70
2023/06/23 04:03:09;;;;;;;7.67;6.97;;;;;;;22.61;56.58;97724.34;5071668;28;20450;-70
2023/06/23 04:05:37;;;;;;;9.83;6.73;;;;;;;22.65;56.64;97725.53;5071562;28;20256;-70
2023/06/23 04:08:04;;;;;;;10.80;7.70;;;;;;;22.72;56.71;97733.50;5071753;28;20543;-70
2023/06/23 04:10:30;;;;;;;9.27;7.60;;;;;;;22.55;56.40;97731.38;5075653;28;20446;-71
2023/06/23 04:12:56;;;;;;;9.40;7.90;;;;;;;22.47;56.28;97740.44;5089332;28;20450;-69
2023/06/23 04:15:23;;;;;;;8.17;7.33;;;;;;;22.64;56.03;97747.94;5094379;28;20416;-69
2023/06/23 04:17:51;;;;;;;8.63;7.80;;;;;;;22.72;55.85;97741.53;5084126;28;20816;-69
2023/06/23 04:20:18;;;;;;;8.33;7.43;;;;;;;22.77;55.65;97755.03;5065502;28;20432;-69
2023/06/23 04:22:44;;;;;;;9.27;7.90;;;;;;;22.79;55.67;97753.78;5089642;28;20439;-68
2023/06/23 04:25:10;;;;;;;8.43;7.50;;;;;;;22.78;55.46;97754.81;5070539;28;20456;-70
2023/06/23 04:27:36;;;;;;;9.73;8.63;;;;;;;22.70;55.20;97753.25;5087641;28;20837;-70
2023/06/23 04:30:03;;;;;;;9.43;8.53;;;;;;;22.77;55.96;97760.38;5076826;28;20193;-70
2023/06/23 04:32:29;;;;;;;9.37;8.33;;;;;;;22.78;55.43;97770.84;5069714;28;20432;-70
2023/06/23 04:34:55;;;;;;;8.07;7.27;;;;;;;22.85;55.71;97774.28;5096817;28;20424;-70
2023/06/23 04:37:29;;;;;;;9.53;8.27;;;;;;;22.86;55.48;97785.81;5090626;28;20177;-69
2023/06/23 04:39:58;;;;;;;11.70;9.13;;;;;;;22.83;54.85;97788.91;5058869;28;20756;-70
2023/06/23 04:42:30;;;;;;;9.97;9.00;;;;;;;22.81;55.13;97790.97;5062290;28;20838;-70
2023/06/23 04:45:00;;;;;;;10.47;8.60;;;;;;;22.75;54.86;97794.50;5065051;28;20846;-70
2023/06/23 04:47:26;;;;;;;10.20;8.53;;;;;;;22.63;55.17;97792.50;5068268;28;20440;-70
2023/06/23 04:50:07;;;;;;;11.27;8.13;;;;;;;22.73;55.06;97800.06;5072383;28;20473;-71
2023/06/23 04:52:34;;;;;;;9.50;8.60;;;;;;;22.73;55.01;97793.91;5083691;28;20439;-68
2023/06/23 04:55:02;;;;;;;9.90;9.00;;;;;;;22.70;55.07;97803.16;5069639;28;20469;-69
2023/06/23 04:57:30;;;;;;;9.60;8.70;;;;;;;22.65;54.95;97816.34;5066297;28;20452;-71
2023/06/23 04:59:58;;;;;;;10.40;9.40;;;;;;;22.70;55.03;97814.69;5074725;28;20486;-72
2023/06/23 05:02:25;;;;;;;12.20;9.67;;;;;;;22.62;54.71;97819.47;5072118;28;20444;-70
2023/06/23 05:04:51;;;;;;;12.30;10.80;;;;;;;22.58;55.12;97818.25;5087637;28;21145;-69
2023/06/23 05:07:17;;;;;;;13.67;10.57;;;;;;;22.66;55.06;97826.81;5087264;28;20420;-69
2023/06/23 05:09:46;;;;;;;12.13;9.30;;;;;;;22.73;55.13;97829.44;5070848;28;20459;-70
2023/06/23 05:12:13;;;;;;;11.83;10.23;;;;;;;22.59;54.92;97827.88;5068024;28;20479;-69
2023/06/23 05:14:40;;;;;;;12.40;10.20;;;;;;;22.65;55.17;97827.84;5080688;28;20411;-70
2023/06/23 05:17:08;;;;;;;12.00;10.80;;;;;;;22.73;54.95;97829.44;5068468;28;20419;-71
2023/06/23 05:19:34;;;;;;;13.60;11.20;;;;;;;22.79;54.37;97833.94;5082133;28;20535;-70
2023/06/23 05:22:00;;;;;;;12.27;10.93;;;;;;;22.90;54.44;97823.59;5069114;28;20977;-70
2023/06/23 05:24:26;;;;;;;15.47;11.90;;;;;;;;;;5071643;28;20231;-70
2023/06/23 05:26:54;;;;;;;13.20;11.80;;;;;;;22.98;53.89;97823.31;5084445;28;20186;-70
2023/06/23 05:29:20;;;;;;;15.57;11.57;;;;;;;23.06;53.98;97836.41;5072901;28;20212;-69
2023/06/23 05:31:47;;;;;;;13.17;11.77;;;;;;;23.04;53.73;97829.63;5072671;28;20461;-70
2023/06/23 05:34:16;;;;;;;15.33;12.00;;;;;;;23.11;53.75;97825.88;5095309;28;20416;-71
2023/06/23 05:36:42;;;;;;;15.80;11.90;;;;;;;23.10;53.94;97837.59;5072219;28;20834;-70
2023/06/23 05:39:08;;;;;;;20.13;14.20;;;;;;;23.13;53.31;97825.66;5079317;28;20415;-70
2023/06/23 05:41:34;;;;;;;13.83;11.90;;;;;;;23.11;53.52;97828.56;5053664;28;20198;-70
2023/06/23 05:43:59;;;;;;;16.80;14.97;;;;;;;23.05;53.13;97820.59;5098857;28;20418;-69
2023/06/23 05:46:26;;;;;;;16.07;13.50;;;;;;;23.03;53.24;97834.19;5072690;28;20174;-69
2023/06/23 05:48:53;;;;;;;19.10;14.43;;;;;;;23.04;53.16;97829.63;5075376;28;20202;-69
2023/06/23 05:51:25;;;;;;;16.27;13.53;;;;;;;23.03;53.05;97834.19;5073094;28;20962;-70
2023/06/23 05:53:54;;;;;;;18.67;15.23;;;;;;;23.07;52.93;97827.34;5073130;28;20504;-69
2023/06/23 05:56:23;;;;;;;18.90;15.90;;;;;;;23.07;53.37;97835.38;5072731;28;21039;-69
2023/06/23 05:58:52;;;;;;;20.83;16.80;;;;;;;23.06;53.03;97839.06;5071820;28;20452;-69
2023/06/23 06:01:20;;;;;;;20.07;15.13;;;;;;;23.09;53.28;97844.00;5075923;28;20423;-69
2023/06/23 06:03:48;;;;;;;18.33;16.00;;;;;;;23.06;53.33;97849.75;5072117;28;20796;-69
2023/06/23 06:06:14;;;;;;;20.17;17.33;;;;;;;23.04;52.77;97846.50;5097159;28;20557;-69
2023/06/23 06:08:40;;;;;;;19.50;15.90;;;;;;;23.08;52.71;97847.69;5072247;28;20451;-69
2023/06/23 06:11:06;;;;;;;28.20;16.30;;;;;;;23.11;52.31;97841.91;5074851;28;21178;-69
2023/06/23 06:13:39;;;;;;;21.83;16.47;;;;;;;23.13;52.49;97855.91;5072047;28;20227;-69
2023/06/23 06:16:07;;;;;;;17.00;15.20;;;;;;;23.14;52.03;97859.38;5088485;28;20436;-68
2023/06/23 06:18:33;;;;;;;21.77;17.07;;;;;;;23.08;51.70;97863.72;5071935;28;20796;-70
2023/06/23 06:21:00;;;;;;;18.90;16.90;;;;;;;23.04;51.26;97854.53;5072650;28;20408;-70
2023/06/23 06:23:26;;;;;;;18.10;15.67;;;;;;;23.11;51.71;97851.81;5096386;28;20462;-70
2023/06/23 06:25:54;;;;;;;17.60;14.70;;;;;;;23.19;51.48;97858.75;5086175;28;20424;-70
2023/06/23 06:28:19;;;;;;;16.93;15.03;;;;;;;23.22;51.18;97852.97;5094142;28;21003;-70
2023/06/23 06:30:46;;;;;;;18.07;15.87;;;;;;;23.18;50.76;97863.25;5068330;28;20444;-71
2023/06/23 06:33:12;;;;;;;15.80;13.67;;;;;;;23.32;50.93;97858.63;5090517;28;20205;-69
2023/06/23 06:35:40;;;;;;;18.17;16.00;;;;;;;23.21;50.08;97862.03;5051424;28;20881;-70
2023/06/23 06:38:06;;;;;;;16.13;14.17;;;;;;;23.41;50.18;97870.72;5078971;28;20465;-69
2023/06/23 06:40:32;;;;;;;21.60;14.97;;;;;;;23.56;50.29;97875.72;5084465;28;20511;-70
2023/06/23 06:42:58;;;;;;;18.57;14.83;;;;;;;23.71;50.09;97883.38;5066267;28;20527;-70
2023/06/23 06:45:24;;;;;;;17.03;12.80;;;;;;;23.97;49.73;97894.91;5089201;28;20210;-70
2023/06/23 06:47:49;;;;;;;16.00;13.80;;;;;;;24.19;48.63;97891.78;5070328;28;20178;-70
2023/06/23 06:50:15;;;;;;;17.80;12.93;;;;;;;24.16;48.48;97890.38;5071502;28;20189;-70
2023/06/23 06:52:42;;;;;;;21.80;14.93;;;;;;;24.29;47.61;97901.97;5090938;28;20216;-71
2023/06/23 06:55:14;;;;;;;14.67;13.20;;;;;;;24.39;47.95;97905.75;5078896;28;20420;-70
2023/06/23 06:57:40;;;;;;;13.87;12.33;;;;;;;24.62;47.72;97912.28;5095701;28;20440;-71
2023/06/23 07:00:06;;;;;;;13.40;11.90;;;;;;;24.71;47.42;97914.66;5072009;28;20439;-70
2023/06/23 07:02:32;;;;;;;15.10;13.50;;;;;;;24.74;47.58;97916.88;5090978;28;20569;-69
2023/06/23 07:04:59;;;;;;;15.10;11.60;;;;;;;24.81;46.90;97929.16;5090115;28;20423;-68
2023/06/23 07:07:25;;;;;;;16.93;12.87;;;;;;;24.82;46.37;97932.66;5096027;28;20200;-69
2023/06/23 07:09:50;;;;;;;15.23;13.63;;;;;;;24.75;46.62;97938.13;5088551;28;20830;-70
2023/06/23 07:12:15;;;;;;;18.20;13.83;;;;;;;24.69;46.45;97942.53;5087031;28;20233;-71
2023/06/23 07:14:41;;;;;;;19.70;13.80;;;;;;;24.52;46.38;97936.91;5053909;28;20310;-70
2023/06/23 07:17:06;;;;;;;16.23;13.53;;;;;;;24.52;46.61;97941.47;5086203;28;20272;-70
2023/06/23 07:19:32;;;;;;;14.47;12.87;;;;;;;24.41;46.94;97958.28;5088547;28;20760;-69
2023/06/23 07:21:57;;;;;;;14.40;12.50;;;;;;;24.42;47.26;97968.78;5092459;28;20561;-70
2023/06/23 07:24:23;;;;;;;16.30;12.70;;;;;;;24.35;46.63;97957.31;5093089;28;20190;-70
2023/06/23 07:26:49;;;;;;;17.67;13.53;;;;;;;24.28;46.17;97965.44;5089140;28;20186;-70
2023/06/23 07:29:14;;;;;;;15.77;12.60;;;;;;;24.25;46.78;97955.16;5089009;28;20656;-70
2023/06/23 07:31:40;;;;;;;15.80;12.17;;;;;;;24.32;46.34;97958.56;5093552;28;20224;-68
2023/06/23 07:34:05;;;;;;;13.30;10.67;;;;;;;24.37;46.72;97968.63;5089674;28;20178;-69
2023/06/23 07:36:31;;;;;;;13.00;11.30;;;;;;;24.45;46.56;97972.84;5087841;28;21242;-69
2023/06/23 07:38:56;;;;;;;16.17;13.30;;;;;;;24.38;45.79;97978.31;5088114;28;20209;-69
2023/06/23 07:41:21;;;;;;;14.00;11.57;;;;;;;24.40;45.94;97986.91;5088265;28;20175;-69
2023/06/23 07:43:47;;;;;;;25.20;12.70;;;;;;;24.30;45.49;97987.47;5088871;28;20185;-69
2023/06/23 07:46:13;;;;;;;12.37;10.90;;;;;;;24.53;45.96;97988.66;5088941;28;20208;-69
2023/06/23 07:48:38;;;;;;;12.40;11.10;;;;;;;24.76;46.02;97984.50;5088293;28;20202;-72
2023/06/23 07:51:03;;;;;;;14.00;11.30;;;;;;;24.82;45.25;97983.59;5088475;28;20182;-68
2023/06/23 07:53:29;;;;;;;11.80;10.53;;;;;;;25.05;44.80;97987.41;5089415;28;20197;-70
2023/06/23 07:55:54;;;;;;;17.47;11.53;;;;;;;25.22;44.76;97991.09;5088387;28;20193;-70
2023/06/23 07:58:20;;;;;;;16.00;11.80;;;;;;;25.34;43.67;97991.13;5089550;28;20197;-70
2023/06/23 08:00:46;;;;;;;12.53;11.23;;;;;;;25.36;42.99;98004.31;5094111;28;20231;-69
2023/06/23 08:03:11;;;;;;;12.13;10.27;;;;;;;25.34;42.90;98006.41;5087524;28;20294;-69
2023/06/23 08:05:38;;;;;;;12.90;9.93;;;;;;;25.23;43.33;98013.38;5089600;28;20458;-70
2023/06/23 08:08:04;;;;;;;11.57;9.40;;;;;;;25.28;43.28;98013.50;5091187;28;20575;-69
2023/06/23 08:10:29;;;;;;;10.57;8.10;;;;;;;25.32;43.92;98014.69;5088656;28;20991;-71
2023/06/23 08:12:55;;;;;;;11.23;9.23;;;;;;;25.33;42.89;98010.94;5087094;28;20527;-69
2023/06/23 08:15:20;;;;;;;9.73;8.73;;;;;;;25.35;43.57;98018.75;5088107;28;20277;-68
2023/06/23 08:17:48;;;;;;;13.20;8.10;;;;;;;25.37;43.49;98022.03;5087776;28;20701;-70
2023/06/23 08:20:13;;;;;;;9.77;7.40;;;;;;;25.44;43.75;98022.81;5093211;28;20706;-70
2023/06/23 08:22:41;;;;;;;9.60;8.60;;;;;;;25.53;43.42;98020.59;5091122;28;20436;-69
2023/06/23 08:25:07;;;;;;;10.17;8.70;;;;;;;25.53;42.73;98024.09;5097159;28;20177;-69
2023/06/23 08:27:33;;;;;;;11.77;7.77;;;;;;;25.52;43.00;98025.16;5087029;28;20451;-72
2023/06/23 08:29:59;;;;;;;9.33;7.50;;;;;;;25.54;43.26;98028.44;5087209;28;20452;-70
2023/06/23 08:32:24;;;;;;;10.00;7.97;;;;;;;25.56;43.29;98039.75;5087775;28;20237;-69
2023/06/23 08:34:50;;;;;;;10.67;8.93;;;;;;;25.47;43.19;98035.75;5087302;28;20224;-69
2023/06/23 08:37:15;;;;;;;14.10;7.70;;;;;;;25.44;43.25;98036.22;5088970;28;20523;-69
2023/06/23 08:39:41;;;;;;;10.60;8.53;;;;;;;25.41;43.21;98042.03;5088324;28;20266;-69
2023/06/23 08:42:07;;;;;;;17.03;8.73;;;;;;;25.32;43.08;98040.69;5086990;28;20197;-70
2023/06/23 08:44:35;;;;;;;11.57;7.73;;;;;;;25.33;43.91;98053.06;5095803;28;20181;-70
2023/06/23 08:47:04;;;;;;;12.53;8.53;;;;;;;25.40;43.57;98043.03;5084145;28;20416;-70
2023/06/23 08:49:31;;;;;;;11.30;8.00;;;;;;;25.48;43.03;98050.00;5088391;28;20810;-70
2023/06/23 08:51:57;;;;;;;21.50;7.90;;;;;;;25.45;43.27;98046.72;5091496;28;20520;-70
2023/06/23 08:54:22;;;;;;;9.27;7.80;;;;;;;25.42;43.21;98049.03;5087189;28;20412;-70
2023/06/23 08:56:48;;;;;;;9.40;8.27;;;;;;;25.28;43.02;98043.81;5066843;28;20197;-71
2023/06/23 08:59:13;;;;;;;9.27;7.30;;;;;;;25.41;43.37;98052.78;5068388;28;20177;-70
2023/06/23 09:01:39;;;;;;;11.07;7.53;;;;;;;25.69;42.96;98048.66;5091426;28;20205;-70
2023/06/23 09:04:04;;;;;;;11.37;8.70;;;;;;;25.88;42.04;98044.03;5091358;28;20177;-70
2023/06/23 09:06:29;;;;;;;12.53;7.87;;;;;;;26.21;41.67;98039.97;5090062;28;20711;-70
2023/06/23 09:08:56;;;;;;;10.60;8.50;;;;;;;26.55;40.97;98052.81;5080817;28;20278;-72
2023/06/23 09:11:21;;;;;;;7.97;7.23;;;;;;;26.86;40.83;98050.78;5073312;28;20264;-71
2023/06/23 09:13:47;;;;;;;10.10;8.60;;;;;;;27.12;40.27;98052.94;5099974;28;20505;-69
2023/06/23 09:16:15;;;;;;;11.60;7.90;;;;;;;27.23;39.78;98043.19;5091556;28;20178;-69
2023/06/23 09:18:41;;;;;;;8.70;7.90;;;;;;;27.27;39.33;98049.75;5071849;28;20265;-69
2023/06/23 09:21:07;;;;;;;8.93;8.03;;;;;;;27.42;38.98;98046.50;5072376;28;20542;-70
2023/06/23 09:23:33;;;;;;;8.73;7.70;;;;;;;27.62;38.80;98053.31;5089876;28;20201;-71
2023/06/23 09:26:02;;;;;;;9.63;6.73;;;;;;;27.54;38.18;98042.97;5089058;28;20424;-69
2023/06/23 09:28:36;;;;;;;7.43;6.20;;;;;;;27.73;38.30;98052.44;5072610;28;20484;-70
2023/06/23 09:31:15;;;;;;;7.83;7.10;;;;;;;27.77;38.18;98058.19;5089505;28;20438;-69
2023/06/23 09:33:52;;;;;;;7.00;6.37;;;;;;;27.71;37.99;98053.75;5089066;28;20440;-71
2023/06/23 09:36:18;;;;;;;7.33;6.50;;;;;;;27.62;37.69;98055.22;5099283;28;20545;-70
2023/06/23 09:38:45;;;;;;;8.47;6.40;;;;;;;27.42;38.22;98073.41;5096145;28;20550;-70
2023/06/23 09:41:13;;;;;;;7.73;7.00;;;;;;;27.41;37.89;98074.47;5084517;28;20969;-71
2023/06/23 09:43:43;;;;;;;8.93;6.60;;;;;;;27.56;37.79;98078.53;5097700;28;20542;-69
2023/06/23 09:46:15;;;;;;;9.50;6.57;;;;;;;27.78;37.91;98064.38;5082736;28;20836;-69
2023/06/23 09:48:42;;;;;;;7.57;5.27;;;;;;;28.02;37.90;98076.63;5090370;28;20491;-70
2023/06/23 09:51:08;;;;;;;10.43;6.60;;;;;;;28.23;35.65;98066.19;5086916;28;20419;-70
2023/06/23 09:53:37;;;;;;;7.53;5.77;;;;;;;28.44;35.59;98063.81;5108693;28;20792;-70
2023/06/23 09:56:04;;;;;;;8.57;5.73;;;;;;;28.44;35.59;98071.88;5074627;28;20265;-68
2023/06/23 09:58:37;;;;;;;6.57;5.97;;;;;;;28.25;35.55;98061.38;5039768;28;20434;-69
2023/06/23 10:01:06;;;;;;;6.93;5.77;;;;;;;28.25;35.43;98072.16;5101850;28;20506;-69
2023/06/23 10:03:32;;;;;;;7.10;5.60;;;;;;;28.45;35.28;98074.31;5095420;28;20450;-69
2023/06/23 10:05:58;;;;;;;6.97;4.70;;;;;;;28.70;34.57;98070.34;5088830;28;20954;-69
2023/06/23 10:08:26;;;;;;;5.50;5.00;;;;;;;28.90;34.08;98058.22;5090662;28;20678;-69
2023/06/23 10:10:51;;;;;;;5.37;4.87;;;;;;;29.11;34.16;98064.69;5091355;28;20781;-69
2023/06/23 10:13:17;;;;;;;7.23;6.10;;;;;;;29.35;33.70;98062.53;5089800;28;20443;-69
2023/06/23 10:15:43;;;;;;;6.83;6.10;;;;;;;29.17;33.34;98060.16;5093975;28;20194;-69
2023/06/23 10:18:11;;;;;;;9.83;6.43;;;;;;;29.19;33.93;98064.22;5091873;28;20606;-68
2023/06/23 10:20:37;;;;;;;7.00;6.10;;;;;;;29.31;33.92;98060.56;5090420;28;20184;-70
2023/06/23 10:23:03;;;;;;;6.13;5.53;;;;;;;29.28;33.62;98054.59;5090235;28;20447;-68
2023/06/23 10:25:28;;;;;;;5.50;4.53;;;;;;;29.47;33.27;98057.00;5093615;28;20265;-69
2023/06/23 10:27:57;;;;;;;7.13;5.20;;;;;;;29.61;32.51;98062.78;5080111;28;20191;-68
2023/06/23 10:30:23;;;;;;;7.20;5.97;;;;;;;29.65;32.68;98063.91;5083099;28;20323;-69
2023/06/23 10:32:53;;;;;;;5.00;4.60;;;;;;;29.86;32.58;98051.41;5089974;28;20538;-69
2023/06/23 10:35:21;;;;;;;6.00;5.47;;;;;;;30.04;31.41;98060.22;5089683;28;20262;-69
2023/06/23 10:37:48;;;;;;;5.80;5.27;;;;;;;30.09;31.85;98057.56;5089008;28;20481;-69
2023/06/23 10:40:19;;;;;;;6.57;5.40;;;;;;;29.86;31.81;98064.91;5093366;28;20419;-69
2023/06/23 10:42:49;;;;;;;7.73;5.70;;;;;;;29.46;32.84;98071.56;5088408;28;20577;-69
2023/06/23 10:45:14;;;;;;;7.63;5.80;;;;;;;29.08;33.39;98082.19;5070768;28;20430;-68
2023/06/23 10:47:40;;;;;;;5.23;4.83;;;;;;;28.72;33.48;98078.22;5097266;28;20426;-69
2023/06/23 10:50:07;;;;;;;7.00;5.67;;;;;;;28.61;34.18;98067.25;5085720;28;20209;-69
2023/06/23 10:52:33;;;;;;;11.53;5.47;;;;;;;28.67;34.34;98078.94;5087211;28;20235;-69
2023/06/23 10:54:59;;;;;;;5.90;5.10;;;;;;;28.90;34.24;98082.50;5085908;28;20488;-70
2023/06/23 10:57:25;;;;;;;9.00;5.93;;;;;;;29.11;33.69;98064.69;5079235;28;20425;-69
2023/06/23 11:00:05;;;;;;;7.13;5.80;;;;;;;29.44;32.53;98065.59;5088019;28;20578;-71
2023/06/23 11:02:50;;;;;;;8.63;5.30;;;;;;;29.46;32.65;98062.63;5089847;28;20242;-69
2023/06/23 11:05:16;;;;;;;7.10;4.33;;;;;;;29.34;32.42;98060.91;5088369;28;20424;-70
2023/06/23 11:08:01;;;;;;;8.43;5.30;;;;;;;29.08;32.51;98075.97;5089526;28;20430;-71
2023/06/23 11:10:50;;;;;;;9.07;5.27;;;;;;;28.89;33.18;98070.88;5085254;28;20205;-70
2023/06/23 11:13:16;;;;;;;5.67;5.17;;;;;;;28.78;33.53;98085.31;5087985;28;20512;-70
2023/06/23 11:15:52;;;;;;;6.60;5.67;;;;;;;28.65;33.25;98095.38;5097000;28;20921;-70
2023/06/23 11:18:21;;;;;;;6.03;5.50;;;;;;;28.76;33.59;98092.84;5084491;28;20190;-71
2023/06/23 11:20:47;;;;;;;8.27;5.80;;;;;;;28.88;33.82;98088.13;5085506;28;20420;-72
2023/06/23 11:23:13;;;;;;;5.87;5.27;;;;;;;28.79;33.20;98078.84;5088445;28;21294;-72
2023/06/23 11:25:46;;;;;;;6.50;5.30;;;;;;;28.78;33.75;98074.53;5087365;28;20174;-74
2023/06/23 11:28:36;;;;;;;5.80;5.03;;;;;;;28.69;33.79;98086.78;5087332;28;20469;-71
2023/06/23 11:31:14;;;;;;;5.37;4.33;;;;;;;28.73;33.85;98085.25;5087932;28;20431;-72